sensor_id;sensor_type;location;lat;lon;timestamp;P1;durP1;ratioP1;P2;durP2;ratioP2
38425;SDS011;24210;51.460;6.148;2024-01-30T00:02:07;13.10;;;9.83;;
38425;SDS011;24210;51.460;6.148;2024-01-30T00:04:32;12.47;;;9.53;;
38425;SDS011;24210;51.460;6.148;2024-01-30T00:06:58;13.47;;;10.73;;
38425;SDS011;24210;51.460;6.148;2024-01-30T00:09:23;16.40;;;10.20;;
38425;SDS011;24210;51.460;6.148;2024-01-30T00:11:48;12.93;;;9.57;;
38425;SDS011;24210;51.460;6.148;2024-01-30T00:14:13;12.60;;;10.30;;
38425;SDS011;24210;51.460;6.148;2024-01-30T00:16:39;14.70;;;9.47;;
38425;SDS011;24210;51.460;6.148;2024-01-30T00:19:04;13.93;;;9.23;;
38425;SDS011;24210;51.460;6.148;2024-01-30T00:21:29;10.67;;;9.57;;
38425;SDS011;24210;51.460;6.148;2024-01-30T00:23:54;13.37;;;10.20;;
38425;SDS011;24210;51.460;6.148;2024-01-30T00:26:19;14.60;;;9.30;;
38425;SDS011;24210;51.460;6.148;2024-01-30T00:28:45;13.03;;;9.20;;
38425;SDS011;24210;51.460;6.148;2024-01-30T00:31:11;12.30;;;9.20;;
38425;SDS011;24210;51.460;6.148;2024-01-30T00:33:37;14.18;;;9.68;;
38425;SDS011;24210;51.460;6.148;2024-01-30T00:36:03;15.47;;;8.53;;
38425;SDS011;24210;51.460;6.148;2024-01-30T00:38:28;24.90;;;11.07;;
38425;SDS011;24210;51.460;6.148;2024-01-30T00:40:53;13.20;;;9.47;;
38425;SDS011;24210;51.460;6.148;2024-01-30T00:43:18;13.53;;;9.50;;
38425;SDS011;24210;51.460;6.148;2024-01-30T00:45:44;17.75;;;9.35;;
38425;SDS011;24210;51.460;6.148;2024-01-30T00:48:10;10.97;;;9.10;;
38425;SDS011;24210;51.460;6.148;2024-01-30T00:50:35;15.10;;;10.60;;
38425;SDS011;24210;51.460;6.148;2024-01-30T00:53:00;12.90;;;9.30;;
38425;SDS011;24210;51.460;6.148;2024-01-30T00:55:26;16.40;;;9.37;;
38425;SDS011;24210;51.460;6.148;2024-01-30T00:57:51;15.37;;;9.33;;
38425;SDS011;24210;51.460;6.148;2024-01-30T01:00:16;15.37;;;9.97;;
38425;SDS011;24210;51.460;6.148;2024-01-30T01:02:42;14.70;;;9.07;;
38425;SDS011;24210;51.460;6.148;2024-01-30T01:05:07;14.43;;;8.70;;
38425;SDS011;24210;51.460;6.148;2024-01-30T01:07:33;16.57;;;11.30;;
38425;SDS011;24210;51.460;6.148;2024-01-30T01:09:58;12.27;;;9.33;;
38425;SDS011;24210;51.460;6.148;2024-01-30T01:12:23;13.67;;;8.60;;
38425;SDS011;24210;51.460;6.148;2024-01-30T01:14:49;16.37;;;10.07;;
38425;SDS011;24210;51.460;6.148;2024-01-30T01:17:14;16.53;;;9.63;;
38425;SDS011;24210;51.460;6.148;2024-01-30T01:19:39;15.83;;;9.77;;
38425;SDS011;24210;51.460;6.148;2024-01-30T01:22:04;14.17;;;9.37;;
38425;SDS011;24210;51.460;6.148;2024-01-30T01:24:33;13.83;;;8.73;;
38425;SDS011;24210;51.460;6.148;2024-01-30T01:26:58;15.85;;;10.93;;
38425;SDS011;24210;51.460;6.148;2024-01-30T01:29:23;13.23;;;9.27;;
38425;SDS011;24210;51.460;6.148;2024-01-30T01:31:53;15.77;;;10.50;;
38425;SDS011;24210;51.460;6.148;2024-01-30T01:34:19;11.77;;;8.97;;
38425;SDS011;24210;51.460;6.148;2024-01-30T01:36:44;14.23;;;9.13;;
38425;SDS011;24210;51.460;6.148;2024-01-30T01:39:09;14.27;;;9.57;;
38425;SDS011;24210;51.460;6.148;2024-01-30T01:41:35;12.65;;;9.82;;
38425;SDS011;24210;51.460;6.148;2024-01-30T01:44:01;15.73;;;10.33;;
38425;SDS011;24210;51.460;6.148;2024-01-30T01:46:26;12.17;;;8.93;;
38425;SDS011;24210;51.460;6.148;2024-01-30T01:48:52;15.65;;;9.32;;
38425;SDS011;24210;51.460;6.148;2024-01-30T01:51:17;11.67;;;9.07;;
38425;SDS011;24210;51.460;6.148;2024-01-30T01:53:42;15.63;;;9.87;;
38425;SDS011;24210;51.460;6.148;2024-01-30T01:56:08;15.73;;;9.87;;
38425;SDS011;24210;51.460;6.148;2024-01-30T01:58:33;15.13;;;10.23;;
38425;SDS011;24210;51.460;6.148;2024-01-30T02:00:58;14.97;;;8.43;;
38425;SDS011;24210;51.460;6.148;2024-01-30T02:03:24;11.63;;;8.43;;
38425;SDS011;24210;51.460;6.148;2024-01-30T02:05:50;10.80;;;8.47;;
38425;SDS011;24210;51.460;6.148;2024-01-30T02:08:15;13.55;;;9.43;;
38425;SDS011;24210;51.460;6.148;2024-01-30T02:10:41;14.00;;;9.73;;
38425;SDS011;24210;51.460;6.148;2024-01-30T02:13:06;16.37;;;10.03;;
38425;SDS011;24210;51.460;6.148;2024-01-30T02:15:31;13.67;;;9.07;;
38425;SDS011;24210;51.460;6.148;2024-01-30T02:17:56;15.07;;;9.93;;
38425;SDS011;24210;51.460;6.148;2024-01-30T02:20:22;14.87;;;8.90;;
38425;SDS011;24210;51.460;6.148;2024-01-30T02:22:48;14.85;;;9.13;;
38425;SDS011;24210;51.460;6.148;2024-01-30T02:25:14;10.87;;;8.83;;
38425;SDS011;24210;51.460;6.148;2024-01-30T02:27:39;12.17;;;9.03;;
38425;SDS011;24210;51.460;6.148;2024-01-30T02:30:04;11.10;;;9.87;;
38425;SDS011;24210;51.460;6.148;2024-01-30T02:32:29;11.50;;;8.80;;
38425;SDS011;24210;51.460;6.148;2024-01-30T02:34:55;9.73;;;8.50;;
38425;SDS011;24210;51.460;6.148;2024-01-30T02:37:20;13.27;;;8.73;;
38425;SDS011;24210;51.460;6.148;2024-01-30T02:39:45;12.50;;;9.17;;
38425;SDS011;24210;51.460;6.148;2024-01-30T02:42:10;10.00;;;8.50;;
38425;SDS011;24210;51.460;6.148;2024-01-30T02:44:36;10.63;;;9.10;;
38425;SDS011;24210;51.460;6.148;2024-01-30T02:47:01;17.77;;;9.13;;
38425;SDS011;24210;51.460;6.148;2024-01-30T02:49:26;15.70;;;9.70;;
38425;SDS011;24210;51.460;6.148;2024-01-30T02:51:53;10.03;;;8.80;;
38425;SDS011;24210;51.460;6.148;2024-01-30T02:54:18;13.55;;;9.65;;
38425;SDS011;24210;51.460;6.148;2024-01-30T02:56:43;13.10;;;9.33;;
38425;SDS011;24210;51.460;6.148;2024-01-30T02:59:09;12.57;;;9.73;;
38425;SDS011;24210;51.460;6.148;2024-01-30T03:01:41;13.03;;;9.43;;
38425;SDS011;24210;51.460;6.148;2024-01-30T03:04:07;11.90;;;9.48;;
38425;SDS011;24210;51.460;6.148;2024-01-30T03:06:32;11.67;;;8.40;;
38425;SDS011;24210;51.460;6.148;2024-01-30T03:08:57;11.87;;;9.03;;
38425;SDS011;24210;51.460;6.148;2024-01-30T03:11:22;12.13;;;9.33;;
38425;SDS011;24210;51.460;6.148;2024-01-30T03:13:47;13.30;;;9.50;;
38425;SDS011;24210;51.460;6.148;2024-01-30T03:16:13;9.17;;;8.17;;
38425;SDS011;24210;51.460;6.148;2024-01-30T03:18:38;11.17;;;8.60;;
38425;SDS011;24210;51.460;6.148;2024-01-30T03:21:03;11.43;;;8.30;;
38425;SDS011;24210;51.460;6.148;2024-01-30T03:23:28;11.30;;;8.50;;
38425;SDS011;24210;51.460;6.148;2024-01-30T03:25:54;12.70;;;9.67;;
38425;SDS011;24210;51.460;6.148;2024-01-30T03:28:19;12.23;;;8.13;;
38425;SDS011;24210;51.460;6.148;2024-01-30T03:30:44;12.60;;;7.97;;
38425;SDS011;24210;51.460;6.148;2024-01-30T03:33:10;11.27;;;8.27;;
38425;SDS011;24210;51.460;6.148;2024-01-30T03:35:35;14.20;;;8.67;;
38425;SDS011;24210;51.460;6.148;2024-01-30T03:38:00;10.20;;;8.37;;
38425;SDS011;24210;51.460;6.148;2024-01-30T03:40:25;12.13;;;8.87;;
38425;SDS011;24210;51.460;6.148;2024-01-30T03:42:50;10.27;;;8.47;;
38425;SDS011;24210;51.460;6.148;2024-01-30T03:45:16;10.90;;;8.73;;
38425;SDS011;24210;51.460;6.148;2024-01-30T03:47:43;14.20;;;8.57;;
38425;SDS011;24210;51.460;6.148;2024-01-30T03:50:08;12.95;;;8.45;;
38425;SDS011;24210;51.460;6.148;2024-01-30T03:52:33;8.73;;;7.83;;
38425;SDS011;24210;51.460;6.148;2024-01-30T03:54:59;11.53;;;9.00;;
38425;SDS011;24210;51.460;6.148;2024-01-30T03:57:24;15.80;;;8.95;;
38425;SDS011;24210;51.460;6.148;2024-01-30T03:59:50;10.50;;;7.67;;
38425;SDS011;24210;51.460;6.148;2024-01-30T04:02:15;9.37;;;7.97;;
38425;SDS011;24210;51.460;6.148;2024-01-30T04:04:40;10.07;;;7.17;;
38425;SDS011;24210;51.460;6.148;2024-01-30T04:07:05;9.30;;;7.63;;
38425;SDS011;24210;51.460;6.148;2024-01-30T04:09:31;12.37;;;8.50;;
38425;SDS011;24210;51.460;6.148;2024-01-30T04:11:57;10.48;;;8.55;;
38425;SDS011;24210;51.460;6.148;2024-01-30T04:14:22;12.57;;;7.97;;
38425;SDS011;24210;51.460;6.148;2024-01-30T04:16:48;12.03;;;8.57;;
38425;SDS011;24210;51.460;6.148;2024-01-30T04:19:13;12.73;;;7.97;;
38425;SDS011;24210;51.460;6.148;2024-01-30T04:21:38;16.10;;;8.00;;
38425;SDS011;24210;51.460;6.148;2024-01-30T04:24:03;10.13;;;8.30;;
38425;SDS011;24210;51.460;6.148;2024-01-30T04:26:29;11.37;;;7.93;;
38425;SDS011;24210;51.460;6.148;2024-01-30T04:28:54;10.07;;;8.07;;
38425;SDS011;24210;51.460;6.148;2024-01-30T04:31:19;13.47;;;7.73;;
38425;SDS011;24210;51.460;6.148;2024-01-30T04:33:44;12.47;;;7.40;;
38425;SDS011;24210;51.460;6.148;2024-01-30T04:36:10;12.73;;;7.93;;
38425;SDS011;24210;51.460;6.148;2024-01-30T04:38:35;9.47;;;7.80;;
38425;SDS011;24210;51.460;6.148;2024-01-30T04:41:00;13.63;;;8.63;;
38425;SDS011;24210;51.460;6.148;2024-01-30T04:43:25;11.13;;;7.93;;
38425;SDS011;24210;51.460;6.148;2024-01-30T04:45:51;9.47;;;7.63;;
38425;SDS011;24210;51.460;6.148;2024-01-30T04:48:16;10.00;;;8.07;;
38425;SDS011;24210;51.460;6.148;2024-01-30T04:50:41;11.00;;;7.50;;
38425;SDS011;24210;51.460;6.148;2024-01-30T04:53:07;13.30;;;7.70;;
38425;SDS011;24210;51.460;6.148;2024-01-30T04:55:32;10.87;;;7.47;;
38425;SDS011;24210;51.460;6.148;2024-01-30T04:57:58;12.77;;;7.90;;
38425;SDS011;24210;51.460;6.148;2024-01-30T05:00:23;15.13;;;8.27;;
38425;SDS011;24210;51.460;6.148;2024-01-30T05:02:48;13.53;;;7.53;;
38425;SDS011;24210;51.460;6.148;2024-01-30T05:05:14;10.63;;;7.90;;
38425;SDS011;24210;51.460;6.148;2024-01-30T05:07:40;10.20;;;7.03;;
38425;SDS011;24210;51.460;6.148;2024-01-30T05:10:06;10.55;;;8.43;;
38425;SDS011;24210;51.460;6.148;2024-01-30T05:12:31;16.27;;;8.07;;
38425;SDS011;24210;51.460;6.148;2024-01-30T05:14:56;14.07;;;8.03;;
38425;SDS011;24210;51.460;6.148;2024-01-30T05:17:21;11.70;;;7.83;;
38425;SDS011;24210;51.460;6.148;2024-01-30T05:19:47;9.77;;;7.70;;
38425;SDS011;24210;51.460;6.148;2024-01-30T05:22:12;10.00;;;7.20;;
38425;SDS011;24210;51.460;6.148;2024-01-30T05:24:40;10.18;;;8.20;;
38425;SDS011;24210;51.460;6.148;2024-01-30T05:27:05;10.40;;;7.90;;
38425;SDS011;24210;51.460;6.148;2024-01-30T05:29:31;9.20;;;7.53;;
38425;SDS011;24210;51.460;6.148;2024-01-30T05:31:56;12.17;;;7.53;;
38425;SDS011;24210;51.460;6.148;2024-01-30T05:34:21;10.67;;;7.40;;
38425;SDS011;24210;51.460;6.148;2024-01-30T05:36:46;9.57;;;7.63;;
38425;SDS011;24210;51.460;6.148;2024-01-30T05:39:11;10.90;;;7.50;;
38425;SDS011;24210;51.460;6.148;2024-01-30T05:41:37;14.40;;;8.10;;
38425;SDS011;24210;51.460;6.148;2024-01-30T05:44:02;9.27;;;7.63;;
38425;SDS011;24210;51.460;6.148;2024-01-30T05:46:27;10.87;;;7.43;;
38425;SDS011;24210;51.460;6.148;2024-01-30T05:48:52;9.37;;;7.00;;
38425;SDS011;24210;51.460;6.148;2024-01-30T05:51:18;10.73;;;6.27;;
38425;SDS011;24210;51.460;6.148;2024-01-30T05:53:43;12.60;;;8.60;;
38425;SDS011;24210;51.460;6.148;2024-01-30T05:56:08;12.07;;;7.73;;
38425;SDS011;24210;51.460;6.148;2024-01-30T05:58:33;10.93;;;7.90;;
38425;SDS011;24210;51.460;6.148;2024-01-30T06:00:59;9.20;;;7.03;;
38425;SDS011;24210;51.460;6.148;2024-01-30T06:03:24;9.57;;;7.30;;
38425;SDS011;24210;51.460;6.148;2024-01-30T06:05:49;13.43;;;7.67;;
38425;SDS011;24210;51.460;6.148;2024-01-30T06:08:14;21.73;;;9.03;;
38425;SDS011;24210;51.460;6.148;2024-01-30T06:10:40;9.27;;;7.23;;
38425;SDS011;24210;51.460;6.148;2024-01-30T06:13:05;12.43;;;7.73;;
38425;SDS011;24210;51.460;6.148;2024-01-30T06:15:30;8.33;;;6.70;;
38425;SDS011;24210;51.460;6.148;2024-01-30T06:17:57;12.98;;;7.57;;
38425;SDS011;24210;51.460;6.148;2024-01-30T06:20:22;12.70;;;6.97;;
38425;SDS011;24210;51.460;6.148;2024-01-30T06:22:48;10.13;;;7.40;;
38425;SDS011;24210;51.460;6.148;2024-01-30T06:25:13;9.23;;;8.23;;
38425;SDS011;24210;51.460;6.148;2024-01-30T06:27:38;12.40;;;8.37;;
38425;SDS011;24210;51.460;6.148;2024-01-30T06:30:04;12.67;;;9.90;;
38425;SDS011;24210;51.460;6.148;2024-01-30T06:32:29;10.63;;;8.00;;
38425;SDS011;24210;51.460;6.148;2024-01-30T06:34:59;10.77;;;8.88;;
38425;SDS011;24210;51.460;6.148;2024-01-30T06:37:24;12.10;;;9.07;;
38425;SDS011;24210;51.460;6.148;2024-01-30T06:39:49;8.73;;;7.17;;
38425;SDS011;24210;51.460;6.148;2024-01-30T06:42:14;12.93;;;9.70;;
38425;SDS011;24210;51.460;6.148;2024-01-30T06:44:40;10.43;;;7.93;;
38425;SDS011;24210;51.460;6.148;2024-01-30T06:47:05;10.87;;;8.87;;
38425;SDS011;24210;51.460;6.148;2024-01-30T06:49:30;9.43;;;8.13;;
38425;SDS011;24210;51.460;6.148;2024-01-30T06:51:56;13.13;;;8.97;;
38425;SDS011;24210;51.460;6.148;2024-01-30T06:54:21;12.37;;;10.20;;
38425;SDS011;24210;51.460;6.148;2024-01-30T06:56:46;13.47;;;10.57;;
38425;SDS011;24210;51.460;6.148;2024-01-30T06:59:11;12.70;;;10.00;;
38425;SDS011;24210;51.460;6.148;2024-01-30T07:01:37;13.53;;;11.30;;
38425;SDS011;24210;51.460;6.148;2024-01-30T07:04:02;14.03;;;10.23;;
38425;SDS011;24210;51.460;6.148;2024-01-30T07:06:27;14.03;;;10.17;;
38425;SDS011;24210;51.460;6.148;2024-01-30T07:08:52;13.30;;;9.67;;
38425;SDS011;24210;51.460;6.148;2024-01-30T07:11:21;21.53;;;12.43;;
38425;SDS011;24210;51.460;6.148;2024-01-30T07:13:47;15.43;;;10.18;;
38425;SDS011;24210;51.460;6.148;2024-01-30T07:16:13;14.05;;;9.50;;
38425;SDS011;24210;51.460;6.148;2024-01-30T07:18:38;12.57;;;9.37;;
38425;SDS011;24210;51.460;6.148;2024-01-30T07:21:03;12.90;;;9.27;;
38425;SDS011;24210;51.460;6.148;2024-01-30T07:23:29;13.03;;;8.37;;
38425;SDS011;24210;51.460;6.148;2024-01-30T07:25:55;11.88;;;8.32;;
38425;SDS011;24210;51.460;6.148;2024-01-30T07:28:20;10.80;;;8.47;;
38425;SDS011;24210;51.460;6.148;2024-01-30T07:30:45;13.03;;;8.60;;
38425;SDS011;24210;51.460;6.148;2024-01-30T07:33:10;15.67;;;12.70;;
38425;SDS011;24210;51.460;6.148;2024-01-30T07:35:36;14.33;;;10.70;;
38425;SDS011;24210;51.460;6.148;2024-01-30T07:38:01;15.23;;;11.93;;
38425;SDS011;24210;51.460;6.148;2024-01-30T07:40:27;21.67;;;11.33;;
38425;SDS011;24210;51.460;6.148;2024-01-30T07:42:53;17.83;;;8.97;;
38425;SDS011;24210;51.460;6.148;2024-01-30T07:45:18;17.05;;;11.77;;
38425;SDS011;24210;51.460;6.148;2024-01-30T07:47:47;15.88;;;10.32;;
38425;SDS011;24210;51.460;6.148;2024-01-30T07:50:12;14.30;;;10.33;;
38425;SDS011;24210;51.460;6.148;2024-01-30T07:52:37;13.80;;;10.17;;
38425;SDS011;24210;51.460;6.148;2024-01-30T07:55:04;12.48;;;9.05;;
38425;SDS011;24210;51.460;6.148;2024-01-30T07:57:29;14.47;;;8.63;;
38425;SDS011;24210;51.460;6.148;2024-01-30T07:59:54;15.97;;;14.27;;
38425;SDS011;24210;51.460;6.148;2024-01-30T08:02:20;16.60;;;12.03;;
38425;SDS011;24210;51.460;6.148;2024-01-30T08:04:45;19.50;;;15.27;;
38425;SDS011;24210;51.460;6.148;2024-01-30T08:07:13;11.07;;;8.80;;
38425;SDS011;24210;51.460;6.148;2024-01-30T08:09:39;11.63;;;9.37;;
38425;SDS011;24210;51.460;6.148;2024-01-30T08:12:04;13.17;;;9.47;;
38425;SDS011;24210;51.460;6.148;2024-01-30T08:14:29;12.30;;;8.20;;
38425;SDS011;24210;51.460;6.148;2024-01-30T08:16:54;10.73;;;7.53;;
38425;SDS011;24210;51.460;6.148;2024-01-30T08:19:20;12.30;;;8.03;;
38425;SDS011;24210;51.460;6.148;2024-01-30T08:21:45;11.60;;;8.03;;
38425;SDS011;24210;51.460;6.148;2024-01-30T08:24:10;12.10;;;7.47;;
38425;SDS011;24210;51.460;6.148;2024-01-30T08:26:36;10.00;;;8.07;;
38425;SDS011;24210;51.460;6.148;2024-01-30T08:29:02;9.75;;;8.68;;
38425;SDS011;24210;51.460;6.148;2024-01-30T08:31:27;9.90;;;7.93;;
38425;SDS011;24210;51.460;6.148;2024-01-30T08:33:53;13.33;;;8.30;;
38425;SDS011;24210;51.460;6.148;2024-01-30T08:36:18;9.47;;;8.13;;
38425;SDS011;24210;51.460;6.148;2024-01-30T08:38:43;10.70;;;7.80;;
38425;SDS011;24210;51.460;6.148;2024-01-30T08:41:09;13.87;;;7.90;;
38425;SDS011;24210;51.460;6.148;2024-01-30T08:43:34;13.23;;;9.23;;
38425;SDS011;24210;51.460;6.148;2024-01-30T08:45:59;10.30;;;8.70;;
38425;SDS011;24210;51.460;6.148;2024-01-30T08:48:25;13.17;;;7.50;;
38425;SDS011;24210;51.460;6.148;2024-01-30T08:50:50;15.17;;;8.77;;
38425;SDS011;24210;51.460;6.148;2024-01-30T08:53:15;10.17;;;7.80;;
38425;SDS011;24210;51.460;6.148;2024-01-30T08:55:41;11.47;;;8.10;;
38425;SDS011;24210;51.460;6.148;2024-01-30T08:58:06;9.73;;;7.20;;
38425;SDS011;24210;51.460;6.148;2024-01-30T09:00:31;10.20;;;8.50;;
38425;SDS011;24210;51.460;6.148;2024-01-30T09:02:56;12.10;;;8.33;;
38425;SDS011;24210;51.460;6.148;2024-01-30T09:05:21;10.40;;;7.17;;
38425;SDS011;24210;51.460;6.148;2024-01-30T09:07:47;9.53;;;7.50;;
38425;SDS011;24210;51.460;6.148;2024-01-30T09:10:12;12.73;;;7.90;;
38425;SDS011;24210;51.460;6.148;2024-01-30T09:12:37;8.63;;;7.77;;
38425;SDS011;24210;51.460;6.148;2024-01-30T09:15:03;8.67;;;7.73;;
38425;SDS011;24210;51.460;6.148;2024-01-30T09:17:28;12.17;;;7.40;;
38425;SDS011;24210;51.460;6.148;2024-01-30T09:19:53;12.63;;;8.83;;
38425;SDS011;24210;51.460;6.148;2024-01-30T09:22:18;9.60;;;7.90;;
38425;SDS011;24210;51.460;6.148;2024-01-30T09:24:44;16.73;;;8.30;;
38425;SDS011;24210;51.460;6.148;2024-01-30T09:27:09;12.17;;;9.03;;
38425;SDS011;24210;51.460;6.148;2024-01-30T09:29:34;13.53;;;9.43;;
38425;SDS011;24210;51.460;6.148;2024-01-30T09:32:01;16.20;;;8.43;;
38425;SDS011;24210;51.460;6.148;2024-01-30T09:34:26;13.10;;;8.10;;
38425;SDS011;24210;51.460;6.148;2024-01-30T09:36:51;13.07;;;8.93;;
38425;SDS011;24210;51.460;6.148;2024-01-30T09:39:17;8.97;;;8.00;;
38425;SDS011;24210;51.460;6.148;2024-01-30T09:41:45;11.10;;;7.68;;
38425;SDS011;24210;51.460;6.148;2024-01-30T09:44:11;10.73;;;7.70;;
38425;SDS011;24210;51.460;6.148;2024-01-30T09:46:37;11.70;;;8.07;;
38425;SDS011;24210;51.460;6.148;2024-01-30T09:49:03;12.53;;;7.43;;
38425;SDS011;24210;51.460;6.148;2024-01-30T09:51:28;9.40;;;6.27;;
38425;SDS011;24210;51.460;6.148;2024-01-30T09:53:54;8.40;;;7.07;;
38425;SDS011;24210;51.460;6.148;2024-01-30T09:56:19;9.67;;;7.77;;
38425;SDS011;24210;51.460;6.148;2024-01-30T09:58:45;9.60;;;7.30;;
38425;SDS011;24210;51.460;6.148;2024-01-30T10:01:11;11.73;;;6.50;;
38425;SDS011;24210;51.460;6.148;2024-01-30T10:03:36;8.93;;;6.67;;
38425;SDS011;24210;51.460;6.148;2024-01-30T10:06:01;9.97;;;6.73;;
38425;SDS011;24210;51.460;6.148;2024-01-30T10:08:27;8.70;;;6.60;;
38425;SDS011;24210;51.460;6.148;2024-01-30T10:10:54;10.05;;;6.78;;
38425;SDS011;24210;51.460;6.148;2024-01-30T10:13:20;11.67;;;6.27;;
38425;SDS011;24210;51.460;6.148;2024-01-30T10:15:47;10.30;;;6.40;;
38425;SDS011;24210;51.460;6.148;2024-01-30T10:18:12;7.53;;;5.85;;
38425;SDS011;24210;51.460;6.148;2024-01-30T10:20:37;10.97;;;7.63;;
38425;SDS011;24210;51.460;6.148;2024-01-30T10:23:03;10.63;;;7.87;;
38425;SDS011;24210;51.460;6.148;2024-01-30T10:25:28;10.20;;;7.17;;
38425;SDS011;24210;51.460;6.148;2024-01-30T10:27:54;11.33;;;7.80;;
38425;SDS011;24210;51.460;6.148;2024-01-30T10:30:23;8.32;;;6.00;;
38425;SDS011;24210;51.460;6.148;2024-01-30T10:32:48;11.50;;;7.00;;
38425;SDS011;24210;51.460;6.148;2024-01-30T10:35:14;11.43;;;7.07;;
38425;SDS011;24210;51.460;6.148;2024-01-30T10:37:39;9.80;;;6.67;;
38425;SDS011;24210;51.460;6.148;2024-01-30T10:40:05;12.63;;;6.97;;
38425;SDS011;24210;51.460;6.148;2024-01-30T10:42:33;9.95;;;7.18;;
38425;SDS011;24210;51.460;6.148;2024-01-30T10:47:27;11.10;;;7.65;;
38425;SDS011;24210;51.460;6.148;2024-01-30T10:49:54;12.57;;;7.83;;
38425;SDS011;24210;51.460;6.148;2024-01-30T10:52:19;13.18;;;8.95;;
38425;SDS011;24210;51.460;6.148;2024-01-30T10:54:45;12.93;;;9.30;;
38425;SDS011;24210;51.460;6.148;2024-01-30T10:57:11;13.02;;;7.88;;
38425;SDS011;24210;51.460;6.148;2024-01-30T10:59:37;11.70;;;8.30;;
38425;SDS011;24210;51.460;6.148;2024-01-30T11:02:03;12.43;;;8.03;;
38425;SDS011;24210;51.460;6.148;2024-01-30T11:04:35;14.37;;;7.53;;
38425;SDS011;24210;51.460;6.148;2024-01-30T11:07:00;12.65;;;7.07;;
38425;SDS011;24210;51.460;6.148;2024-01-30T11:09:28;12.70;;;7.22;;
38425;SDS011;24210;51.460;6.148;2024-01-30T11:11:57;10.40;;;7.85;;
38425;SDS011;24210;51.460;6.148;2024-01-30T11:14:26;16.60;;;8.25;;
38425;SDS011;24210;51.460;6.148;2024-01-30T11:16:52;10.57;;;7.07;;
38425;SDS011;24210;51.460;6.148;2024-01-30T11:19:24;9.33;;;6.77;;
38425;SDS011;24210;51.460;6.148;2024-01-30T11:21:52;9.75;;;6.28;;
38425;SDS011;24210;51.460;6.148;2024-01-30T11:24:19;11.55;;;7.03;;
38425;SDS011;24210;51.460;6.148;2024-01-30T11:26:44;11.40;;;7.37;;
38425;SDS011;24210;51.460;6.148;2024-01-30T11:29:10;11.10;;;7.40;;
38425;SDS011;24210;51.460;6.148;2024-01-30T11:31:38;11.68;;;6.95;;
38425;SDS011;24210;51.460;6.148;2024-01-30T11:34:03;11.83;;;7.40;;
38425;SDS011;24210;51.460;6.148;2024-01-30T11:36:30;12.60;;;7.63;;
38425;SDS011;24210;51.460;6.148;2024-01-30T11:38:56;12.15;;;6.50;;
38425;SDS011;24210;51.460;6.148;2024-01-30T11:41:22;9.83;;;6.40;;
38425;SDS011;24210;51.460;6.148;2024-01-30T11:43:53;12.03;;;6.67;;
38425;SDS011;24210;51.460;6.148;2024-01-30T11:46:19;13.55;;;7.22;;
38425;SDS011;24210;51.460;6.148;2024-01-30T11:48:44;9.53;;;6.43;;
38425;SDS011;24210;51.460;6.148;2024-01-30T11:51:09;11.50;;;6.87;;
38425;SDS011;24210;51.460;6.148;2024-01-30T11:53:34;11.13;;;6.93;;
38425;SDS011;24210;51.460;6.148;2024-01-30T11:56:00;8.63;;;5.10;;
38425;SDS011;24210;51.460;6.148;2024-01-30T11:58:25;10.00;;;5.70;;
38425;SDS011;24210;51.460;6.148;2024-01-30T12:00:54;12.43;;;6.05;;
38425;SDS011;24210;51.460;6.148;2024-01-30T12:03:20;9.55;;;6.10;;
38425;SDS011;24210;51.460;6.148;2024-01-30T12:05:45;16.10;;;7.20;;
38425;SDS011;24210;51.460;6.148;2024-01-30T12:08:15;8.73;;;5.50;;
38425;SDS011;24210;51.460;6.148;2024-01-30T12:10:40;10.32;;;5.95;;
38425;SDS011;24210;51.460;6.148;2024-01-30T12:13:05;11.80;;;6.93;;
38425;SDS011;24210;51.460;6.148;2024-01-30T12:15:30;11.27;;;6.43;;
38425;SDS011;24210;51.460;6.148;2024-01-30T12:18:18;10.60;;;6.07;;
38425;SDS011;24210;51.460;6.148;2024-01-30T12:20:41;12.85;;;6.28;;
38425;SDS011;24210;51.460;6.148;2024-01-30T12:23:06;9.63;;;7.17;;
38425;SDS011;24210;51.460;6.148;2024-01-30T12:25:31;11.33;;;7.20;;
38425;SDS011;24210;51.460;6.148;2024-01-30T12:27:57;10.83;;;6.63;;
38425;SDS011;24210;51.460;6.148;2024-01-30T12:30:22;13.87;;;6.90;;
38425;SDS011;24210;51.460;6.148;2024-01-30T12:32:49;13.87;;;6.43;;
38425;SDS011;24210;51.460;6.148;2024-01-30T12:35:15;8.98;;;5.97;;
38425;SDS011;24210;51.460;6.148;2024-01-30T12:37:41;10.80;;;5.60;;
38425;SDS011;24210;51.460;6.148;2024-01-30T12:40:09;10.17;;;6.37;;
38425;SDS011;24210;51.460;6.148;2024-01-30T12:42:35;11.10;;;7.55;;
38425;SDS011;24210;51.460;6.148;2024-01-30T12:45:01;9.27;;;5.87;;
38425;SDS011;24210;51.460;6.148;2024-01-30T12:47:26;12.55;;;6.65;;
38425;SDS011;24210;51.460;6.148;2024-01-30T12:49:52;18.63;;;7.63;;
38425;SDS011;24210;51.460;6.148;2024-01-30T12:54:43;9.75;;;6.05;;
38425;SDS011;24210;51.460;6.148;2024-01-30T12:57:09;8.87;;;6.17;;
38425;SDS011;24210;51.460;6.148;2024-01-30T12:59:34;12.63;;;7.67;;
38425;SDS011;24210;51.460;6.148;2024-01-30T13:02:00;11.53;;;6.53;;
38425;SDS011;24210;51.460;6.148;2024-01-30T13:04:25;8.82;;;5.93;;
38425;SDS011;24210;51.460;6.148;2024-01-30T13:06:51;10.90;;;6.67;;
38425;SDS011;24210;51.460;6.148;2024-01-30T13:09:16;10.70;;;6.53;;
38425;SDS011;24210;51.460;6.148;2024-01-30T13:11:42;10.70;;;7.43;;
38425;SDS011;24210;51.460;6.148;2024-01-30T13:14:07;14.00;;;7.37;;
38425;SDS011;24210;51.460;6.148;2024-01-30T13:16:32;9.93;;;6.43;;
38425;SDS011;24210;51.460;6.148;2024-01-30T13:18:58;9.07;;;6.27;;
38425;SDS011;24210;51.460;6.148;2024-01-30T13:21:23;7.83;;;5.10;;
38425;SDS011;24210;51.460;6.148;2024-01-30T13:23:48;9.53;;;5.17;;
38425;SDS011;24210;51.460;6.148;2024-01-30T13:26:18;6.78;;;4.63;;
38425;SDS011;24210;51.460;6.148;2024-01-30T13:28:43;10.50;;;5.00;;
38425;SDS011;24210;51.460;6.148;2024-01-30T13:31:08;5.23;;;2.47;;
38425;SDS011;24210;51.460;6.148;2024-01-30T13:33:33;5.93;;;2.53;;
38425;SDS011;24210;51.460;6.148;2024-01-30T13:35:58;7.17;;;3.53;;
38425;SDS011;24210;51.460;6.148;2024-01-30T13:38:24;6.80;;;3.70;;
38425;SDS011;24210;51.460;6.148;2024-01-30T13:40:49;8.63;;;3.10;;
38425;SDS011;24210;51.460;6.148;2024-01-30T13:43:14;8.37;;;2.73;;
38425;SDS011;24210;51.460;6.148;2024-01-30T13:48:07;3.60;;;2.10;;
38425;SDS011;24210;51.460;6.148;2024-01-30T13:50:32;3.07;;;1.67;;
38425;SDS011;24210;51.460;6.148;2024-01-30T13:52:58;1.13;;;1.07;;
38425;SDS011;24210;51.460;6.148;2024-01-30T13:55:23;11.43;;;2.43;;
38425;SDS011;24210;51.460;6.148;2024-01-30T13:57:48;3.37;;;1.83;;
38425;SDS011;24210;51.460;6.148;2024-01-30T14:00:14;1.53;;;1.43;;
38425;SDS011;24210;51.460;6.148;2024-01-30T14:02:41;2.00;;;1.15;;
38425;SDS011;24210;51.460;6.148;2024-01-30T14:05:06;2.93;;;1.63;;
38425;SDS011;24210;51.460;6.148;2024-01-30T14:07:31;2.57;;;1.07;;
38425;SDS011;24210;51.460;6.148;2024-01-30T14:09:57;3.77;;;0.90;;
38425;SDS011;24210;51.460;6.148;2024-01-30T14:12:22;1.43;;;1.10;;
38425;SDS011;24210;51.460;6.148;2024-01-30T14:14:48;2.50;;;0.50;;
38425;SDS011;24210;51.460;6.148;2024-01-30T14:17:13;2.80;;;1.37;;
38425;SDS011;24210;51.460;6.148;2024-01-30T14:19:38;2.00;;;1.07;;
38425;SDS011;24210;51.460;6.148;2024-01-30T14:22:04;4.50;;;1.30;;
38425;SDS011;24210;51.460;6.148;2024-01-30T14:24:29;1.03;;;0.83;;
38425;SDS011;24210;51.460;6.148;2024-01-30T14:26:54;1.97;;;1.07;;
38425;SDS011;24210;51.460;6.148;2024-01-30T14:29:20;0.77;;;0.57;;
38425;SDS011;24210;51.460;6.148;2024-01-30T14:31:45;5.57;;;0.67;;
38425;SDS011;24210;51.460;6.148;2024-01-30T14:34:10;2.47;;;0.67;;